Rooks Creek, Illinois
Current Conditions -  °F | °C
As of 1:15 AM on Saturday 29 Nov 2014 (Local Time) from KPNT Reporting Station
Clear Clear  
Wind Chill: 26°   Ceiling: Unl
Heat Index: 34°   Visibility: 10mi
Dew Point: 31°   Wind: 12mph
Humidity: 89%   Direction: 160°SSE
Pressure: 29.85"   Gusts: NA
Location:  40.8602°N, 88.6284°W
Report Text: KPNT 290715Z AUTO 16010KT 10SM CLR 01/00 A2985 RMK AO2 T00121004
Loading
Personal Weather Stations






























Interactive Weather Map New forecast layout! Learn more

10-Day Weather Forecast

Advertisements
Track Severe Weather on mobile